Main page
METAR-TAF:

METAR-TAF

Airports :

Kuwait City, Kuwait

Kuwait International Airport

latitude: 29-13N, longitude: 047-59E, elevation: 55 m

Current weather observation

The report was made 17 minutes ago, at 17:00 UTC
Wind 8 kt from the North
Temperature 42°C
Humidity 11%
Pressure 999 hPa
Visibility 10 km or more
no clouds below 1500 m and no cumulonimbus

METAR: OKBK 261700Z 36008KT CAVOK 42/05 Q0999 NOSIG

Time: 20:17 (17:17 UTC)

Forecast

The report was made 6 hours and 32 minutes ago, at 10:45 UTC
Forecast valid from 26 at 12 UTC to 27 at 18 UTC
Wind 10 kt from the North/Northwest with gusts up to 20 kt
Visibility: 8000 m
Clear sky

TAF: OKBK 261045Z 2612/2718 33010G20KT 8000 SKC

Weather observations and forecasts of more than 4000 airports (METAR and TAF reports).

The available stations are represented by yellow and red dots on the map.

Hover mouse over dot to see the name of the station.

Then click to see weather observations and forecasts.

To change the map : click on the green buttons with a black cross to zoom in, on the green button with a dash to zoom out, or on the green arrows for adjacent maps.


METAR-TAF: